D/T METAR WX W/SPE G/SPE TEMP DEWP FEEL
31/01/23 13:20 EGXW 311320Z 29018G30KT 9999 BKN037 10/01 Q1020 NOSIG RMK BLU BLU 20.7mph 34.5mph 10°C 1°C 8.1°C
31/01/23 12:50 EGXW 311250Z 28020G31KT 9999 BKN038 09/01 Q1020 NOSIG RMK BLU BLU 23.0mph 35.7mph 9°C 1°C 7.1°C
31/01/23 12:20 EGXW 311220Z 28019KT 9999 FEW033 09/02 Q1020 NOSIG RMK BLU BLU 21.9mph 9°C 2°C 7.4°C
31/01/23 06:50 EGXW 310650Z 23014KT 9999 FEW015 BKN020 07/05 Q1019 TEMPO SCT010 RMK WHT TEMPO GRN 16.1mph 7°C 5°C 6.3°C
31/01/23 05:50 EGXW 310550Z AUTO 24014KT 9999 FEW045/// SCT063/// BKN089/// 07/04 Q1019 16.1mph 7°C 4°C 6.0°C
31/01/23 04:20 EGXW 310420Z AUTO 24011KT 9999 FEW045/// 06/04 Q1020 12.7mph 6°C 4°C 5.0°C
30/01/23 21:50 EGXW 302150Z AUTO 23012KT 9999 BKN094/// 05/02 Q1024 13.8mph 5°C 2°C 3.4°C
30/01/23 12:50 EGXW 301250Z 29012KT 9999 FEW028 09/02 Q1023 NOSIG RMK BLU BLU 13.8mph 9°C 2°C 7.4°C
30/01/23 11:50 EGXW 301150Z 30011G21KT 9999 FEW028 FEW250 09/02 Q1023 NOSIG RMK BLU BLU 12.7mph 24.2mph 9°C 2°C 7.4°C
30/01/23 10:50 EGXW 301050Z 28012KT 9999 FEW030 08/02 Q1022 NOSIG RMK BLU BLU 13.8mph 8°C 2°C 6.4°C
30/01/23 10:20 EGXW 301020Z 28011KT 9999 FEW030 07/02 Q1022 NOSIG RMK BLU BLU 12.7mph 7°C 2°C 5.4°C
30/01/23 07:50 EGXW 300750Z 30015KT 9999 FEW032 06/01 Q1020 NOSIG RMK BLU BLU 17.3mph 6°C 1°C 4.1°C
30/01/23 06:50 EGXW 300650Z 28014KT 9999 FEW032 06/01 Q1019 NOSIG RMK BLU BLU 16.1mph 6°C 1°C 4.1°C
09/01/23 06:20 EGXW 090620Z AUTO 25008KT 9999 NCD 04/03 Q0991 9.2mph 4°C 3°C 2.7°C
09/01/23 05:50 EGXW 090550Z AUTO 23007KT 9999 NCD 04/03 Q0991 8.1mph 4°C 3°C 2.7°C
09/01/23 05:20 EGXW 090520Z AUTO 23010KT 9999 NCD 04/03 Q0990 11.5mph 4°C 3°C 2.7°C
09/01/23 04:50 EGXW 090450Z AUTO 23007KT 9999 NCD 04/03 Q0990 8.1mph 4°C 3°C 2.7°C
09/01/23 04:20 EGXW 090420Z AUTO 22007KT 9999 NCD 04/03 Q0990 8.1mph 4°C 3°C 2.7°C
09/01/23 03:50 EGXW 090350Z AUTO 23011KT 9999 OVC150/// 04/03 Q0989 12.7mph 4°C 3°C 2.7°C
09/01/23 03:20 EGXW 090320Z AUTO 23010KT 9999 OVC170/// 04/03 Q0989 11.5mph 4°C 3°C 2.7°C
09/01/23 02:50 EGXW 090250Z AUTO 23009KT 9999 FEW190/// 04/03 Q0989 10.4mph 4°C 3°C 2.7°C
09/01/23 02:20 EGXW 090220Z AUTO 22008KT 9999 SCT190/// 04/02 Q0988 9.2mph 4°C 2°C 2.4°C
09/01/23 01:20 EGXW 090120Z AUTO 22010KT 9999 NCD 04/03 Q0987 11.5mph 4°C 3°C 2.7°C
09/01/23 00:50 EGXW 090050Z AUTO 23009KT 9999 BKN031/// 04/02 Q0987 10.4mph 4°C 2°C 2.4°C
09/01/23 00:20 EGXW 090020Z AUTO 22009KT 9999 BKN031/// 04/02 Q0987 10.4mph 4°C 2°C 2.4°C
08/01/23 23:50 EGXW 082350Z AUTO 22009KT 9999 NCD 04/02 Q0987 10.4mph 4°C 2°C 2.4°C
08/01/23 23:20 EGXW 082320Z AUTO 21013KT 9999 SCT083/// 04/02 Q0986 15.0mph 4°C 2°C 2.4°C
08/01/23 22:50 EGXW 082250Z AUTO 21011KT 9999 FEW048/// SCT097/// 04/02 Q0986 12.7mph 4°C 2°C 2.4°C
08/01/23 22:20 EGXW 082220Z AUTO 20010KT 9999 BKN180/// 04/02 Q0986 11.5mph 4°C 2°C 2.4°C
08/01/23 21:50 EGXW 082150Z AUTO 20011KT 9999 FEW110/// SCT180/// 04/03 Q0986 12.7mph 4°C 3°C 2.7°C
08/01/23 20:20 EGXW 082020Z AUTO 21011KT 9999 FEW140/// 05/03 Q0986 12.7mph 5°C 3°C 3.7°C
08/01/23 19:20 EGXW 081920Z AUTO 22010KT 9999 BKN170/// 05/04 Q0986 11.5mph 5°C 4°C 4.0°C
08/01/23 18:50 EGXW 081850Z AUTO 22011KT 9999 OVC160/// 05/04 Q0985 12.7mph 5°C 4°C 4.0°C
08/01/23 18:20 EGXW 081820Z AUTO 22010KT 9999 OVC130/// 06/04 Q0986 11.5mph 6°C 4°C 5.0°C
08/01/23 17:50 EGXW 081750Z AUTO 21009KT 9999 // FEW035/// OVC098/// 06/04 Q0985 10.4mph 6°C 4°C 5.0°C
08/01/23 17:20 EGXW 081720Z AUTO 21012KT 9999 // FEW069/// OVC090/// 06/04 Q0986 13.8mph 6°C 4°C 5.0°C
08/01/23 16:50 EGXW 081650Z AUTO 21010KT 9999 -RA FEW018/// BKN034/// 06/04 Q0985 -RA 11.5mph 6°C 4°C 5.0°C
08/01/23 16:20 EGXW 081620Z AUTO 23008KT 9999 RA OVC020/// 07/05 Q0985 RA 9.2mph 7°C 5°C 6.3°C
08/01/23 15:50 EGXW 081550Z AUTO 21017KT 9999 -RA OVC024/// 08/04 Q0985 -RA 19.6mph 8°C 4°C 7.0°C
08/01/23 15:20 EGXW 081520Z AUTO 20017KT 9999 // OVC036/// 08/05 Q0985 19.6mph 8°C 5°C 7.3°C
08/01/23 14:20 EGXW 081420Z AUTO 24010KT 9999 RA OVC020/// 07/05 Q0985 RA 11.5mph 7°C 5°C 6.3°C
08/01/23 13:50 EGXW 081350Z AUTO 19023KT 9999 OVC020/// 09/05 Q0985 26.5mph 9°C 5°C 8.3°C
08/01/23 13:20 EGXW 081320Z AUTO 19020KT 9999 OVC020/// 08/05 Q0986 23.0mph 8°C 5°C 7.3°C
08/01/23 12:50 EGXW 081250Z AUTO 17017KT 9999 OVC021/// 08/06 Q0986 19.6mph 8°C 6°C 7.6°C
08/01/23 12:20 EGXW 081220Z AUTO 17015KT 9999 FEW016/// BKN055/// 07/05 Q0987 17.3mph 7°C 5°C 6.3°C
08/01/23 11:50 EGXW 081150Z AUTO 18015KT 9999 FEW015/// 07/05 Q0988 17.3mph 7°C 5°C 6.3°C
08/01/23 11:20 EGXW 081120Z AUTO 18017KT 9999 FEW016/// 07/05 Q0988 19.6mph 7°C 5°C 6.3°C
08/01/23 10:50 EGXW 081050Z AUTO 18015KT 9999 NCD 08/05 Q0989 17.3mph 8°C 5°C 7.3°C
08/01/23 10:20 EGXW 081020Z AUTO 19015KT 9999 NCD 07/04 Q0990 17.3mph 7°C 4°C 6.0°C
08/01/23 09:50 EGXW 080950Z AUTO 19014KT 9999 NCD 06/04 Q0990 16.1mph 6°C 4°C 5.0°C
08/01/23 09:20 EGXW 080920Z AUTO 20013KT 9999 // NCD 06/04 Q0990 15.0mph 6°C 4°C 5.0°C
08/01/23 08:50 EGXW 080850Z AUTO 20015KT 9999 // FEW038/// SCT055/// 06/04 Q0990 17.3mph 6°C 4°C 5.0°C
08/01/23 08:20 EGXW 080820Z AUTO 20015KT 9999 BKN038/// BKN070/// 06/04 Q0991 17.3mph 6°C 4°C 5.0°C
08/01/23 07:50 EGXW 080750Z AUTO 20017KT 9999 BKN048/// SCT110/// 06/04 Q0990 19.6mph 6°C 4°C 5.0°C
08/01/23 07:20 EGXW 080720Z AUTO 20016KT 9999 // SCT035/// SCT063/// 06/04 Q0991 18.4mph 6°C 4°C 5.0°C
08/01/23 06:50 EGXW 080650Z AUTO 20015KT 9999 // BKN043/// SCT140/// 07/05 Q0991 17.3mph 7°C 5°C 6.3°C
08/01/23 06:20 EGXW 080620Z AUTO 20014KT 9999 DZ FEW017/// BKN048/// 07/05 Q0991 DZ 16.1mph 7°C 5°C 6.3°C
08/01/23 05:50 EGXW 080550Z AUTO 20016KT 9999 FEW045/// 07/04 Q0991 18.4mph 7°C 4°C 6.0°C
08/01/23 05:20 EGXW 080520Z AUTO 20015KT 9999 SCT044/// SCT120/// 07/04 Q0991 17.3mph 7°C 4°C 6.0°C
08/01/23 04:50 EGXW 080450Z AUTO 21019KT 9999 FEW075/// 07/04 Q0991 21.9mph 7°C 4°C 6.0°C
08/01/23 04:20 EGXW 080420Z AUTO 21018KT 9999 FEW034/// SCT160/// 07/04 Q0991 20.7mph 7°C 4°C 6.0°C
08/01/23 03:50 EGXW 080350Z AUTO 20021KT 9999 FEW190/// 07/04 Q0991 24.2mph 7°C 4°C 6.0°C
08/01/23 03:20 EGXW 080320Z AUTO 20019KT 9999 FEW150/// 07/05 Q0991 21.9mph 7°C 5°C 6.3°C
08/01/23 02:50 EGXW 080250Z AUTO 20019KT 9999 NCD 07/05 Q0991 21.9mph 7°C 5°C 6.3°C
08/01/23 02:20 EGXW 080220Z AUTO 20019KT 9999 FEW034/// BKN150/// 07/05 Q0991 21.9mph 7°C 5°C 6.3°C
08/01/23 01:50 EGXW 080150Z AUTO 20019KT 9999 NCD 07/05 Q0991 21.9mph 7°C 5°C 6.3°C
08/01/23 01:20 EGXW 080120Z AUTO 20018KT 9999 FEW039/// 07/04 Q0991 20.7mph 7°C 4°C 6.0°C
08/01/23 00:20 EGXW 080020Z AUTO 21021KT 9999 BKN170/// 07/04 Q0992 24.2mph 7°C 4°C 6.0°C
07/01/23 23:50 EGXW 072350Z AUTO 21017KT 9999 FEW039/// 07/04 Q0992 19.6mph 7°C 4°C 6.0°C
07/01/23 23:20 EGXW 072320Z AUTO 21020KT 9999 FEW042/// 07/04 Q0992 23.0mph 7°C 4°C 6.0°C
07/01/23 22:50 EGXW 072250Z AUTO 21018KT 9999 FEW033/// 06/04 Q0992 20.7mph 6°C 4°C 5.0°C
07/01/23 22:20 EGXW 072220Z AUTO 20016KT 9999 SCT033/// 06/04 Q0992 18.4mph 6°C 4°C 5.0°C
07/01/23 21:50 EGXW 072150Z AUTO 21017KT 9999 FEW036/// 06/04 Q0992 19.6mph 6°C 4°C 5.0°C
07/01/23 21:20 EGXW 072120Z AUTO 22017KT 9999 FEW036/// 07/04 Q0992 19.6mph 7°C 4°C 6.0°C
07/01/23 20:50 EGXW 072050Z AUTO 21017KT 9999 // NCD 07/04 Q0992 19.6mph 7°C 4°C 6.0°C
07/01/23 20:20 EGXW 072020Z AUTO 22016KT 9999 // FEW018/// 07/05 Q0992 18.4mph 7°C 5°C 6.3°C
07/01/23 19:50 EGXW 071950Z AUTO 21017KT 9999 -RA OVC019/// 08/06 Q0991 -RA 19.6mph 8°C 6°C 7.6°C
07/01/23 19:20 EGXW 071920Z AUTO 22018KT 9999 // BKN020/// BKN100/// 08/06 Q0991 20.7mph 8°C 6°C 7.6°C
07/01/23 18:50 EGXW 071850Z AUTO 21017KT 9999 // SCT022/// SCT066/// 08/06 Q0990 19.6mph 8°C 6°C 7.6°C
07/01/23 18:20 EGXW 071820Z AUTO 21022G34KT 7000 RA OVC013/// 08/07 Q0990 RA 25.3mph 39.1mph 8°C 7°C 8.0°C
07/01/23 17:50 EGXW 071750Z AUTO 20020KT 9999 -RA SCT027/// BKN042/// 09/07 Q0990 -RA 23.0mph 9°C 7°C 9.0°C
07/01/23 17:20 EGXW 071720Z AUTO 18014KT 9999 // FEW053/// 09/07 Q0990 16.1mph 9°C 7°C 9.0°C
07/01/23 16:50 EGXW 071650Z AUTO 18009KT 9999 // BKN013/// 09/08 Q0991 10.4mph 9°C 8°C 9.4°C
07/01/23 16:20 EGXW 071620Z AUTO 19012KT 9999 -RA BKN017/// BKN034/// 09/08 Q0991 -RA 13.8mph 9°C 8°C 9.4°C
07/01/23 15:50 EGXW 071550Z AUTO 19014KT 9999 FEW022/// 09/07 Q0992 16.1mph 9°C 7°C 9.0°C
07/01/23 15:20 EGXW 071520Z AUTO 20018KT 9999 // SCT060/// BKN075/// 10/07 Q0992 20.7mph 10°C 7°C 10.0°C
07/01/23 14:50 EGXW 071450Z AUTO 19017KT 9999 // OVC046/// 10/08 Q0992 19.6mph 10°C 8°C 10.4°C
07/01/23 14:20 EGXW 071420Z AUTO 20018KT 9999 -RA FEW023/// OVC047/// 10/08 Q0992 -RA 20.7mph 10°C 8°C 10.4°C
07/01/23 13:50 EGXW 071350Z AUTO 20017KT 9999 // FEW024/// OVC049/// 11/09 Q0992 19.6mph 11°C 9°C 11.8°C
07/01/23 12:50 EGXW 071250Z AUTO 19021KT 9000 -RA FEW009/// OVC047/// 10/09 Q0993 -RA 24.2mph 10°C 9°C 10.8°C
07/01/23 12:20 EGXW 071220Z AUTO 18020KT 9999 -RA OVC009/// 10/09 Q0993 -RA 23.0mph 10°C 9°C 10.8°C
07/01/23 11:50 EGXW 071150Z AUTO 18020KT 9999 -RA OVC010/// 10/09 Q0994 -RA 23.0mph 10°C 9°C 10.8°C
07/01/23 11:20 EGXW 071120Z AUTO 18021KT 9999 DZ OVC009/// 10/09 Q0994 DZ 24.2mph 10°C 9°C 10.8°C
07/01/23 10:50 EGXW 071050Z AUTO 17022KT 9999 -RADZ OVC009/// 10/09 Q0994 -RA -DZ 25.3mph 10°C 9°C 10.8°C
07/01/23 10:20 EGXW 071020Z AUTO 17023KT 7000 -RA OVC009/// 09/08 Q0995 -RA 26.5mph 9°C 8°C 9.4°C
07/01/23 09:50 EGXW 070950Z AUTO 17025KT 9999 -RA OVC009/// 09/08 Q0995 -RA 28.8mph 9°C 8°C 9.4°C